KORC

Orange City Municipal Airport

Orange City, Iowa, USA
METAR KORC 170355Z AUTO 00000KT 10SM CLR 06/02 A3024 RMK AO2
Observed Flight Rules
Oct-17 @ 03:55 UTC (an hour ago) Visual Flight Rules
Visibility Clouds
10 miles
  • Clear skies
Temperatures Readings
Current 6°C / 43°F
Dewpoint 2°C / 36°F
Humidity 76%
Altimeter 30.24" Hg
Pressure 1024 hPa
Elevation 431
METAR KORC 170355Z AUTO 00000KT 10SM CLR 06/02 A3024 RMK AO2
Observed Flight Rules
Oct-17 @ 03:55 UTC
(an hour ago)
VFR
Clouds
  • Clear skies
Temperature Dewpoint
6°C / 43°F 2°C / 36°F
Humidity Altimeter Pressure
76% 30.24" Hg 1024 hPa